Time;durP1;ratioP1;P1;durP2;ratioP2;P2;SDS_P1;SDS_P2;PMS_P1;PMS_P2;Temp;Humidity;BMP_temperature;BMP_pressure;BME280_temperature;BME280_humidity;BME280_pressure;Samples;Min_cycle;Max_cycle;Signal;HPM_P1;HPM_P2
2023/01/20 00:01:27;;;;;;;7.18;3.90;;;20.10;51.80;;;;;;5048962;28;20135;-76
2023/01/20 00:03:55;;;;;;;9.23;4.13;;;20.10;51.90;;;;;;5043458;28;20025;-74
2023/01/20 00:06:23;;;;;;;5.18;3.33;;;20.10;52.00;;;;;;5029162;28;20482;-75
2023/01/20 00:08:53;;;;;;;6.55;3.70;;;20.10;52.20;;;;;;5028172;28;20021;-77
2023/01/20 00:11:19;;;;;;;11.13;4.53;;;20.10;52.00;;;;;;5029692;28;20037;-77
2023/01/20 00:13:45;;;;;;;13.05;3.97;;;20.10;52.50;;;;;;5026928;28;20041;-75
2023/01/20 00:16:11;;;;;;;7.88;3.50;;;20.10;52.50;;;;;;5022516;28;20091;-74
2023/01/20 00:18:38;;;;;;;6.65;3.20;;;20.10;52.50;;;;;;5024582;28;20045;-76
2023/01/20 00:21:05;;;;;;;7.10;3.42;;;20.10;52.70;;;;;;5015011;28;20079;-77
2023/01/20 00:23:31;;;;;;;7.65;3.60;;;20.10;52.90;;;;;;5027849;28;20029;-77
2023/01/20 00:25:57;;;;;;;9.77;5.43;;;20.10;52.70;;;;;;5028627;28;20022;-75
2023/01/20 00:28:23;;;;;;;11.02;5.18;;;20.00;52.10;;;;;;5021588;28;20076;-77
2023/01/20 00:30:48;;;;;;;11.43;5.15;;;20.00;52.30;;;;;;5028709;28;20493;-76
2023/01/20 00:33:14;;;;;;;8.55;4.63;;;20.00;52.40;;;;;;5011648;28;20044;-77
2023/01/20 00:35:40;;;;;;;25.05;5.63;;;20.00;52.40;;;;;;5043061;28;20124;-76
2023/01/20 00:38:06;;;;;;;11.50;5.18;;;20.10;52.70;;;;;;5029080;28;20116;-77
2023/01/20 00:40:31;;;;;;;13.43;4.90;;;20.10;52.80;;;;;;5029494;28;20034;-76
2023/01/20 00:42:57;;;;;;;10.57;5.07;;;20.10;53.00;;;;;;5030404;28;20029;-77
2023/01/20 00:45:23;;;;;;;12.38;4.80;;;20.10;53.20;;;;;;5030479;28;20107;-77
2023/01/20 00:47:48;;;;;;;16.08;4.97;;;20.10;53.60;;;;;;5030642;28;20103;-77
2023/01/20 00:50:14;;;;;;;12.13;4.45;;;20.10;53.60;;;;;;5030784;28;20298;-76
2023/01/20 00:52:40;;;;;;;12.52;4.85;;;20.10;53.70;;;;;;5031485;28;20506;-77
2023/01/20 00:55:06;;;;;;;9.25;4.60;;;20.10;53.80;;;;;;5030747;28;20040;-76
2023/01/20 00:57:32;;;;;;;7.13;3.88;;;20.10;54.00;;;;;;5029196;28;20026;-76
2023/01/20 00:59:58;;;;;;;13.13;4.60;;;20.10;54.10;;;;;;5027666;28;20040;-77
2023/01/20 01:02:23;;;;;;;13.68;4.45;;;20.10;54.10;;;;;;5028538;28;20022;-77
2023/01/20 01:04:50;;;;;;;11.20;4.05;;;20.10;54.20;;;;;;5029457;28;20017;-75
2023/01/20 01:07:16;;;;;;;13.45;4.70;;;20.20;54.40;;;;;;5028916;28;20041;-76
2023/01/20 01:09:42;;;;;;;12.50;4.47;;;20.10;54.30;;;;;;5027050;28;20022;-75
2023/01/20 01:12:08;;;;;;;28.25;5.03;;;20.20;54.50;;;;;;5030489;28;20022;-76
2023/01/20 01:14:34;;;;;;;15.57;4.80;;;20.10;54.50;;;;;;5027332;28;20036;-75
2023/01/20 01:16:59;;;;;;;13.30;4.35;;;20.10;54.70;;;;;;5029978;28;20257;-75
2023/01/20 01:19:25;;;;;;;17.77;4.70;;;20.20;54.80;;;;;;5029309;28;20022;-75
2023/01/20 01:21:51;;;;;;;11.57;4.65;;;20.20;55.00;;;;;;5016763;28;20449;-76
2023/01/20 01:24:17;;;;;;;7.68;3.65;;;20.10;54.90;;;;;;5023699;28;20026;-76
2023/01/20 01:26:42;;;;;;;9.77;3.90;;;20.10;54.90;;;;;;5024940;28;20056;-76
2023/01/20 01:29:10;;;;;;;12.55;4.60;;;20.10;54.90;;;;;;5032303;28;20029;-76
2023/01/20 01:31:35;;;;;;;19.75;4.43;;;20.10;55.10;;;;;;5032395;28;20038;-76
2023/01/20 01:34:01;;;;;;;14.13;4.30;;;20.10;55.20;;;;;;5032571;28;20040;-75
2023/01/20 01:36:27;;;;;;;20.10;4.28;;;20.10;55.30;;;;;;5033256;28;20057;-76
2023/01/20 01:38:53;;;;;;;19.98;4.80;;;20.10;55.40;;;;;;5032221;28;20084;-75
2023/01/20 01:41:18;;;;;;;15.50;4.40;;;20.10;55.50;;;;;;5031398;28;20395;-75
2023/01/20 01:44:10;;;;;;;18.40;4.28;;;20.10;55.60;;;;;;5032360;28;20041;-75
2023/01/20 01:46:37;;;;;;;17.77;5.15;;;20.10;55.60;;;;;;5033535;28;20033;-75
2023/01/20 01:49:08;;;;;;;12.90;3.90;;;20.10;55.60;;;;;;5032985;28;20511;-75
2023/01/20 01:51:43;;;;;;;7.10;3.58;;;20.10;55.60;;;;;;5032053;28;20033;-75
2023/01/20 01:54:17;;;;;;;13.93;4.40;;;20.10;55.60;;;;;;5032204;28;20036;-75
2023/01/20 01:56:45;;;;;;;16.40;4.15;;;20.10;55.70;;;;;;5032127;28;20029;-76
2023/01/20 01:59:12;;;;;;;10.90;4.03;;;20.10;55.70;;;;;;5032439;28;20068;-76
2023/01/20 02:01:41;;;;;;;11.30;4.43;;;20.10;55.70;;;;;;5031688;28;20053;-76
2023/01/20 02:04:14;;;;;;;16.50;4.38;;;20.10;55.70;;;;;;5032650;28;20482;-76
2023/01/20 02:06:46;;;;;;;11.95;3.65;;;20.10;55.80;;;;;;5032243;28;20436;-76
2023/01/20 02:09:13;;;;;;;13.10;4.03;;;20.10;55.70;;;;;;5030566;28;20034;-75
2023/01/20 02:11:47;;;;;;;12.55;4.60;;;20.10;55.70;;;;;;5031484;28;20027;-76
2023/01/20 02:14:20;;;;;;;12.70;3.80;;;20.10;55.70;;;;;;5032810;28;20524;-76
2023/01/20 02:17:16;;;;;;;11.43;4.03;;;20.10;55.90;;;;;;5032890;28;20071;-75
2023/01/20 02:20:06;;;;;;;15.35;4.20;;;20.10;56.10;;;;;;5017927;28;20032;-75
2023/01/20 02:22:46;;;;;;;14.57;3.45;;;20.10;56.10;;;;;;5032920;28;20393;-75
2023/01/20 02:25:28;;;;;;;9.40;3.67;;;20.10;56.00;;;;;;5029600;28;20057;-76
2023/01/20 02:28:22;;;;;;;10.18;3.58;;;20.10;56.10;;;;;;5031050;28;20030;-76
2023/01/20 02:30:53;;;;;;;11.07;3.85;;;20.10;56.10;;;;;;5032350;28;20489;-76
2023/01/20 02:33:22;;;;;;;13.18;4.10;;;20.10;56.10;;;;;;5031799;28;20022;-76
2023/01/20 02:35:58;;;;;;;17.35;4.13;;;20.10;56.20;;;;;;5030640;28;20409;-76
2023/01/20 02:38:34;;;;;;;8.00;3.58;;;20.10;56.40;;;;;;5031218;28;20029;-76
2023/01/20 02:41:12;;;;;;;7.28;3.25;;;20.10;56.40;;;;;;5031816;28;20397;-76
2023/01/20 02:44:10;;;;;;;10.15;3.40;;;20.10;56.40;;;;;;5030574;28;20018;-76
2023/01/20 02:46:43;;;;;;;11.02;3.45;;;20.10;56.50;;;;;;5018732;28;20034;-76
2023/01/20 02:49:26;;;;;;;9.38;3.75;;;20.10;56.50;;;;;;5046662;28;20056;-76
2023/01/20 02:52:01;;;;;;;10.13;3.67;;;20.10;56.50;;;;;;5032121;28;20632;-76
2023/01/20 02:54:31;;;;;;;8.80;3.42;;;20.10;56.60;;;;;;5031451;28;20032;-75
2023/01/20 02:56:59;;;;;;;9.98;3.40;;;20.10;56.60;;;;;;5032356;28;20562;-75
2023/01/20 02:59:30;;;;;;;10.57;3.20;;;20.10;56.50;;;;;;5031092;28;20034;-75
2023/01/20 03:02:21;;;;;;;6.75;3.15;;;20.10;56.70;;;;;;5029271;28;20124;-76
2023/01/20 03:05:08;;;;;;;9.88;3.92;;;20.10;56.60;;;;;;5024964;28;20021;-76
2023/01/20 03:07:36;;;;;;;8.27;3.47;;;20.10;56.60;;;;;;5029822;28;20033;-76
2023/01/20 03:10:06;;;;;;;8.23;3.50;;;20.10;56.60;;;;;;5030390;28;20390;-76
2023/01/20 03:12:45;;;;;;;6.60;2.92;;;20.10;56.60;;;;;;5032116;28;20228;-76
2023/01/20 03:15:11;;;;;;;7.78;3.28;;;20.10;56.60;;;;;;5030026;28;20470;-76
2023/01/20 03:17:37;;;;;;;10.23;3.28;;;20.20;56.70;;;;;;5030589;28;20033;-75
2023/01/20 03:20:04;;;;;;;9.45;3.65;;;20.10;56.70;;;;;;5030248;28;20030;-75
2023/01/20 03:22:30;;;;;;;10.48;3.28;;;20.10;56.80;;;;;;5032265;28;20469;-75
2023/01/20 03:24:57;;;;;;;9.07;3.50;;;20.10;56.90;;;;;;5031311;28;20025;-75
2023/01/20 03:27:24;;;;;;;15.60;3.90;;;20.10;57.00;;;;;;5031243;28;20074;-75
2023/01/20 03:29:50;;;;;;;8.77;3.33;;;20.10;57.00;;;;;;5031083;28;20036;-75
2023/01/20 03:32:24;;;;;;;13.63;4.07;;;20.10;57.00;;;;;;5046764;28;20025;-76
2023/01/20 03:34:52;;;;;;;9.48;3.30;;;20.10;56.90;;;;;;5029560;28;20033;-75
2023/01/20 03:37:18;;;;;;;8.90;3.08;;;20.10;57.00;;;;;;5031344;28;20442;-76
2023/01/20 03:39:44;;;;;;;8.88;3.30;;;20.10;57.00;;;;;;5031023;28;20049;-75
2023/01/20 03:42:19;;;;;;;10.50;3.38;;;20.10;57.00;;;;;;5031216;28;20026;-76
2023/01/20 03:45:10;;;;;;;8.65;2.92;;;20.10;57.00;;;;;;5029907;28;20084;-75
2023/01/20 03:48:04;;;;;;;5.68;2.95;;;20.10;57.00;;;;;;5029394;28;20033;-76
2023/01/20 03:50:46;;;;;;;7.40;2.55;;;20.10;57.10;;;;;;5029488;28;20044;-76
2023/01/20 03:53:47;;;;;;;7.15;2.80;;;20.10;56.90;;;;;;5029605;28;20363;-76
2023/01/20 03:56:34;;;;;;;6.80;2.80;;;20.10;57.00;;;;;;5017617;28;20064;-76
2023/01/20 03:59:01;;;;;;;6.65;3.05;;;20.10;57.10;;;;;;5030126;28;20084;-76
2023/01/20 04:01:37;;;;;;;4.68;2.70;;;20.10;57.10;;;;;;5030873;28;20440;-76
2023/01/20 04:04:07;;;;;;;7.20;3.42;;;20.10;57.10;;;;;;5030701;28;20453;-76
2023/01/20 04:06:33;;;;;;;7.65;2.95;;;20.10;57.10;;;;;;5030857;28;20033;-76
2023/01/20 04:09:15;;;;;;;11.05;3.47;;;20.10;57.20;;;;;;5030411;28;20029;-76
2023/01/20 04:11:41;;;;;;;6.05;3.10;;;20.10;57.20;;;;;;5030110;28;20033;-76
2023/01/20 04:14:08;;;;;;;10.15;3.17;;;20.20;57.20;;;;;;5029444;28;20473;-76
2023/01/20 04:16:35;;;;;;;6.40;3.08;;;20.10;57.10;;;;;;5031054;28;20393;-76
2023/01/20 04:19:01;;;;;;;8.68;3.00;;;20.10;57.20;;;;;;5030290;28;20041;-75
2023/01/20 04:21:48;;;;;;;11.90;2.92;;;20.10;57.10;;;;;;5030248;28;20029;-76
2023/01/20 04:24:29;;;;;;;6.78;3.35;;;20.10;57.20;;;;;;5030325;28;20096;-75
2023/01/20 04:26:55;;;;;;;8.18;2.85;;;20.10;57.20;;;;;;5030278;28;20037;-76
2023/01/20 04:29:20;;;;;;;10.10;2.90;;;20.10;57.40;;;;;;5029722;28;20509;-75
2023/01/20 04:31:46;;;;;;;9.43;3.10;;;20.10;57.30;;;;;;5030188;28;20393;-76
2023/01/20 04:34:14;;;;;;;9.45;3.05;;;20.10;57.50;;;;;;5012049;28;20365;-76
2023/01/20 04:36:40;;;;;;;9.90;3.10;;;20.10;57.60;;;;;;5030317;28;20025;-76
2023/01/20 04:39:06;;;;;;;6.70;3.10;;;20.10;57.50;;;;;;5029924;28;20025;-76
2023/01/20 04:41:32;;;;;;;6.80;2.85;;;20.10;57.60;;;;;;5027716;28;20026;-76
2023/01/20 04:43:58;;;;;;;8.77;3.55;;;20.10;57.50;;;;;;5029391;28;20595;-76
2023/01/20 04:46:24;;;;;;;7.97;3.13;;;20.10;57.60;;;;;;5030528;28;20052;-76
2023/01/20 04:48:49;;;;;;;7.65;2.83;;;20.10;57.50;;;;;;5027860;28;20094;-75
2023/01/20 04:51:15;;;;;;;6.50;2.97;;;20.10;57.70;;;;;;5030476;28;20041;-75
2023/01/20 04:53:44;;;;;;;6.15;2.80;;;20.10;57.60;;;;;;5029947;28;20098;-76
2023/01/20 04:56:11;;;;;;;7.22;2.72;;;20.10;57.60;;;;;;5029646;28;20057;-76
2023/01/20 04:58:37;;;;;;;8.23;2.83;;;20.10;57.50;;;;;;5028768;28;20053;-76
2023/01/20 05:01:03;;;;;;;7.68;2.97;;;20.20;57.60;;;;;;5032105;28;20036;-76
2023/01/20 05:03:29;;;;;;;8.75;3.15;;;20.10;57.40;;;;;;5033511;28;20025;-76
2023/01/20 05:05:55;;;;;;;10.55;3.33;;;20.10;57.40;;;;;;5032445;28;20156;-76
2023/01/20 05:08:21;;;;;;;8.20;3.08;;;20.10;57.40;;;;;;5032369;28;20025;-75
2023/01/20 05:10:46;;;;;;;7.70;2.60;;;20.20;57.40;;;;;;5031885;28;20051;-76
2023/01/20 05:13:12;;;;;;;5.82;2.90;;;20.20;57.40;;;;;;5031616;28;20032;-76
2023/01/20 05:15:39;;;;;;;5.53;2.83;;;20.20;57.40;;;;;;5048893;28;20491;-75
2023/01/20 05:18:05;;;;;;;6.18;2.90;;;20.20;57.50;;;;;;5034313;28;20113;-76
2023/01/20 05:20:30;;;;;;;6.00;2.95;;;20.20;57.60;;;;;;5032941;28;20112;-76
2023/01/20 05:22:57;;;;;;;22.02;3.55;;;20.20;57.50;;;;;;5029998;28;20483;-77
2023/01/20 05:25:23;;;;;;;11.27;3.33;;;20.20;57.70;;;;;;5032397;28;20053;-77
2023/01/20 05:27:49;;;;;;;11.20;3.15;;;20.20;57.60;;;;;;5031754;28;20030;-77
2023/01/20 05:30:15;;;;;;;9.02;3.10;;;20.20;57.70;;;;;;5031509;28;20043;-76
2023/01/20 05:32:41;;;;;;;9.30;3.28;;;20.20;57.70;;;;;;5033606;28;20405;-76
2023/01/20 05:35:08;;;;;;;8.68;3.50;;;20.20;57.60;;;;;;5031867;28;20502;-76
2023/01/20 05:37:33;;;;;;;11.65;3.33;;;20.10;57.80;;;;;;5047624;28;20037;-75
2023/01/20 05:39:59;;;;;;;11.27;3.72;;;20.10;57.70;;;;;;5031835;28;20029;-75
2023/01/20 05:42:25;;;;;;;9.20;3.33;;;20.20;57.80;;;;;;5034123;28;20071;-75
2023/01/20 05:44:50;;;;;;;10.85;3.53;;;20.10;57.70;;;;;;5048588;28;20021;-77
2023/01/20 05:47:16;;;;;;;10.93;3.33;;;20.20;57.80;;;;;;5032246;28;20113;-76
2023/01/20 05:49:42;;;;;;;10.35;3.05;;;20.20;57.80;;;;;;5032920;28;20397;-75
2023/01/20 05:52:08;;;;;;;12.35;3.67;;;20.10;57.70;;;;;;5033776;28;20408;-76
2023/01/20 05:54:33;;;;;;;10.77;3.60;;;20.10;57.80;;;;;;5032327;28;20025;-76
2023/01/20 05:56:59;;;;;;;9.60;3.45;;;20.10;57.70;;;;;;5033534;28;20033;-76
2023/01/20 05:59:25;;;;;;;8.95;3.45;;;20.10;57.80;;;;;;5031531;28;20040;-76
2023/01/20 06:01:51;;;;;;;8.75;3.17;;;20.10;57.80;;;;;;5026661;28;20034;-76
2023/01/20 06:04:16;;;;;;;9.88;3.38;;;20.10;57.90;;;;;;5020551;28;20025;-76
2023/01/20 06:06:42;;;;;;;8.80;3.30;;;20.10;58.10;;;;;;5031172;28;20037;-76
2023/01/20 06:09:09;;;;;;;10.68;3.15;;;20.10;58.00;;;;;;5031283;28;20026;-75
2023/01/20 06:11:35;;;;;;;9.48;3.30;;;20.10;58.00;;;;;;5032558;28;20033;-76
2023/01/20 06:14:01;;;;;;;14.00;3.30;;;20.10;58.00;;;;;;5032842;28;20018;-77
2023/01/20 06:16:28;;;;;;;10.15;3.13;;;20.10;57.90;;;;;;5032567;28;20049;-76
2023/01/20 06:18:54;;;;;;;13.25;3.78;;;20.10;58.00;;;;;;5030763;28;20112;-76
2023/01/20 06:21:20;;;;;;;6.88;3.10;;;20.20;58.00;;;;;;5032352;28;20112;-75
2023/01/20 06:23:46;;;;;;;7.90;3.17;;;20.20;58.00;;;;;;5032659;28;20120;-75
2023/01/20 06:26:13;;;;;;;15.57;3.80;;;20.20;57.90;;;;;;5033211;28;20025;-76
2023/01/20 06:28:39;;;;;;;10.50;3.97;;;20.10;57.90;;;;;;5031498;28;20056;-76
2023/01/20 06:31:08;;;;;;;9.10;2.95;;;20.10;57.80;;;;;;5032094;28;20485;-76
2023/01/20 06:33:33;;;;;;;8.95;3.17;;;20.10;57.80;;;;;;5014253;28;20116;-76
2023/01/20 06:36:00;;;;;;;13.10;3.60;;;20.10;57.80;;;;;;5032279;28;20484;-76
2023/01/20 06:38:28;;;;;;;7.57;2.80;;;20.20;57.90;;;;;;5030566;28;20037;-76
2023/01/20 06:41:02;;;;;;;8.38;3.05;;;20.10;57.90;;;;;;5032876;28;20029;-76
2023/01/20 06:43:28;;;;;;;11.80;3.35;;;20.10;57.90;;;;;;5032839;28;20480;-76
2023/01/20 06:45:59;;;;;;;9.93;3.08;;;20.10;57.90;;;;;;5032804;28;20436;-76
2023/01/20 06:48:25;;;;;;;10.63;3.45;;;20.10;58.00;;;;;;5032430;28;20394;-75
2023/01/20 06:50:50;;;;;;;10.57;3.28;;;20.10;58.00;;;;;;5031751;28;20025;-76
2023/01/20 06:53:16;;;;;;;6.72;2.95;;;20.10;58.00;;;;;;5032483;28;20029;-76
2023/01/20 06:55:42;;;;;;;8.32;3.38;;;20.10;58.00;;;;;;5030749;28;20033;-76
2023/01/20 06:58:08;;;;;;;11.00;3.50;;;20.10;58.00;;;;;;5032431;28;20267;-75
2023/01/20 07:00:33;;;;;;;9.30;3.92;;;20.10;58.00;;;;;;5030292;28;20033;-77
2023/01/20 07:02:59;;;;;;;14.15;3.53;;;20.10;58.00;;;;;;5031483;28;20029;-76
2023/01/20 07:05:25;;;;;;;12.95;3.97;;;20.10;58.20;;;;;;5030780;28;20109;-77
2023/01/20 07:07:50;;;;;;;9.98;3.40;;;20.10;58.20;;;;;;5032490;28;20113;-76
2023/01/20 07:10:16;;;;;;;7.13;3.20;;;20.10;58.20;;;;;;5029944;28;20429;-76
2023/01/20 07:12:42;;;;;;;8.20;3.85;;;20.10;58.20;;;;;;5047099;28;20029;-77
2023/01/20 07:15:08;;;;;;;6.32;3.42;;;20.10;58.20;;;;;;5031286;28;20482;-77
2023/01/20 07:17:34;;;;;;;9.65;3.20;;;20.10;58.20;;;;;;5032158;28;20072;-77
2023/01/20 07:19:59;;;;;;;8.38;3.50;;;20.10;58.20;;;;;;5030604;28;20105;-77
2023/01/20 07:22:25;;;;;;;8.25;3.55;;;20.10;58.20;;;;;;5031863;28;20068;-76
2023/01/20 07:24:51;;;;;;;9.85;3.88;;;20.20;58.20;;;;;;5046424;28;20029;-76
2023/01/20 07:27:17;;;;;;;9.07;3.40;;;20.10;58.20;;;;;;5030973;28;20585;-76
2023/01/20 07:29:42;;;;;;;8.95;3.47;;;20.10;58.20;;;;;;5030043;28;20072;-76
2023/01/20 07:32:08;;;;;;;8.38;3.45;;;20.10;58.20;;;;;;5031131;28;20064;-77
2023/01/20 07:34:34;;;;;;;9.82;3.90;;;20.10;58.20;;;;;;5029436;28;20021;-76
2023/01/20 07:37:02;;;;;;;14.50;3.92;;;20.10;58.10;;;;;;5030290;28;20132;-76
2023/01/20 07:39:28;;;;;;;14.43;3.88;;;20.10;58.00;;;;;;5030545;28;20078;-77
2023/01/20 07:41:54;;;;;;;12.93;3.83;;;20.20;58.60;;;;;;5029311;28;20428;-77
2023/01/20 07:44:20;;;;;;;13.30;3.58;;;20.20;58.70;;;;;;5030384;28;20109;-77
2023/01/20 07:46:45;;;;;;;11.50;4.30;;;20.20;58.80;;;;;;5030869;28;20117;-77
2023/01/20 07:49:11;;;;;;;10.85;3.92;;;20.10;58.70;;;;;;5029291;28;20389;-78
2023/01/20 07:51:38;;;;;;;13.43;3.60;;;20.10;58.70;;;;;;5031004;28;20022;-77
2023/01/20 07:54:04;;;;;;;10.35;4.00;;;20.10;58.70;;;;;;5031011;28;20112;-75
2023/01/20 07:56:30;;;;;;;11.30;3.78;;;20.10;58.70;;;;;;5029066;28;20029;-76
2023/01/20 07:58:56;;;;;;;11.00;4.00;;;20.10;58.80;;;;;;5044962;28;20088;-75
2023/01/20 08:01:29;;;;;;;12.18;4.53;;;20.10;58.70;;;;;;5030132;28;20469;-75
2023/01/20 08:03:56;;;;;;;14.85;4.05;;;20.10;58.70;;;;;;5030981;28;20025;-75
2023/01/20 08:06:24;;;;;;;17.75;4.30;;;20.10;58.80;;;;;;5030321;28;20033;-76
2023/01/20 08:08:50;;;;;;;13.00;4.13;;;20.20;59.00;;;;;;5031273;28;20036;-75
2023/01/20 08:11:18;;;;;;;16.63;3.58;;;20.20;58.80;;;;;;5029791;28;20059;-76
2023/01/20 08:13:44;;;;;;;20.60;4.07;;;20.20;58.90;;;;;;5030967;28;20022;-76
2023/01/20 08:16:12;;;;;;;14.07;3.88;;;20.10;59.10;;;;;;5024854;28;20033;-76
2023/01/20 08:18:39;;;;;;;18.55;4.32;;;20.20;59.00;;;;;;5030786;28;20064;-75
2023/01/20 08:21:07;;;;;;;13.63;4.32;;;20.20;59.20;;;;;;5030239;28;20033;-75
2023/01/20 08:23:36;;;;;;;15.32;4.05;;;20.20;60.20;;;;;;5030800;28;20272;-76
2023/01/20 08:26:06;;;;;;;18.45;4.82;;;20.30;60.40;;;;;;5025457;28;20022;-76
2023/01/20 08:28:32;;;;;;;;;;;20.30;61.40;;;;;;5011609;28;20439;-75
2023/01/20 08:31:07;;;;;;;19.52;5.00;;;20.30;61.30;;;;;;5009685;28;19960;-73
2023/01/20 08:33:32;;;;;;;17.77;5.45;;;20.30;60.30;;;;;;5010634;28;20409;-75
2023/01/20 08:36:09;;;;;;;24.77;6.43;;;20.30;60.10;;;;;;5010370;28;20030;-75
2023/01/20 08:38:35;;;;;;;17.20;5.60;;;20.40;60.60;;;;;;5013157;28;20030;-73
2023/01/20 08:41:05;;;;;;;19.42;6.60;;;20.30;59.70;;;;;;5021700;28;20029;-73
2023/01/20 08:43:30;;;;;;;21.55;6.82;;;20.30;59.50;;;;;;5029677;28;20374;-73
2023/01/20 08:46:06;;;;;;;17.42;6.68;;;20.30;59.80;;;;;;5045891;28;20075;-74
2023/01/20 08:48:33;;;;;;;26.42;6.65;;;20.30;59.70;;;;;;5029719;28;20129;-74
2023/01/20 08:51:03;;;;;;;30.08;6.22;;;20.30;59.40;;;;;;5013397;28;20462;-74
2023/01/20 08:53:28;;;;;;;15.82;6.13;;;20.30;59.10;;;;;;5029502;28;20034;-74
2023/01/20 08:55:56;;;;;;;21.58;6.43;;;20.20;58.80;;;;;;5042975;28;20389;-74
2023/01/20 08:58:21;;;;;;;15.88;5.95;;;20.20;59.10;;;;;;5030292;28;20030;-75
2023/01/20 09:00:47;;;;;;;15.25;6.28;;;20.20;59.00;;;;;;5030579;28;20032;-75
2023/01/20 09:03:13;;;;;;;16.90;6.32;;;20.20;59.00;;;;;;5031195;28;20057;-74
2023/01/20 09:05:39;;;;;;;16.92;5.22;;;20.20;58.90;;;;;;5028551;28;20028;-74
2023/01/20 09:08:04;;;;;;;14.57;5.55;;;20.20;59.00;;;;;;5030920;28;20029;-74
2023/01/20 09:10:34;;;;;;;16.45;6.38;;;20.20;58.90;;;;;;5029727;28;20025;-74
2023/01/20 09:13:00;;;;;;;17.98;5.85;;;20.20;59.10;;;;;;5028002;28;20041;-74
2023/01/20 09:15:26;;;;;;;12.88;5.15;;;20.20;58.90;;;;;;5029440;28;20495;-73
2023/01/20 09:17:51;;;;;;;16.25;5.60;;;20.20;59.10;;;;;;5030526;28;20022;-73
2023/01/20 09:20:17;;;;;;;18.27;5.65;;;20.20;59.30;;;;;;5027466;28;20025;-74
2023/01/20 09:22:43;;;;;;;19.02;5.32;;;20.20;59.70;;;;;;5029301;28;20501;-74
2023/01/20 09:25:09;;;;;;;12.63;5.63;;;20.20;59.50;;;;;;5030540;28;20109;-74
2023/01/20 09:27:35;;;;;;;16.02;5.40;;;20.20;59.30;;;;;;5045668;28;20038;-74
2023/01/20 09:30:02;;;;;;;13.90;5.38;;;20.20;59.10;;;;;;5030257;28;20062;-74
2023/01/20 09:32:28;;;;;;;14.75;5.00;;;20.20;59.10;;;;;;5030557;28;20036;-74
2023/01/20 09:34:55;;;;;;;16.55;5.57;;;20.20;59.20;;;;;;5045683;28;20022;-74
2023/01/20 09:43:53;;;;;;;15.57;5.50;;;20.20;58.90;;;;;;5030280;28;20116;-73
2023/01/20 09:46:19;;;;;;;11.25;5.00;;;20.20;58.90;;;;;;5031729;28;20119;-74
2023/01/20 09:55:40;;;;;;;11.35;4.85;;;20.20;58.80;;;;;;5033840;28;20456;-73
2023/01/20 09:58:13;;;;;;;11.68;5.80;;;20.20;58.70;;;;;;5022144;28;20116;-73
2023/01/20 10:00:41;;;;;;;12.13;5.10;;;20.20;58.50;;;;;;5033550;28;20053;-73
2023/01/20 10:03:24;;;;;;;12.25;5.50;;;20.20;58.80;;;;;;5033686;28;20033;-74
2023/01/20 10:05:53;;;;;;;10.85;5.25;;;20.20;58.50;;;;;;5032749;28;20037;-74
2023/01/20 10:08:35;;;;;;;14.80;5.40;;;20.20;58.60;;;;;;5033761;28;20478;-74
2023/01/20 10:11:07;;;;;;;11.82;5.13;;;20.20;58.80;;;;;;5033840;28;20029;-74
2023/01/20 10:14:06;;;;;;;15.15;5.38;;;20.20;58.60;;;;;;5033530;28;20112;-74
2023/01/20 10:16:36;;;;;;;12.38;5.28;;;20.20;59.30;;;;;;5033125;28;20025;-74
2023/01/20 10:19:25;;;;;;;12.45;5.63;;;20.20;58.80;;;;;;5033280;28;20029;-74
2023/01/20 10:22:05;;;;;;;12.45;5.07;;;20.20;58.60;;;;;;5016065;28;20029;-74
2023/01/20 10:24:36;;;;;;;13.00;5.10;;;20.20;58.70;;;;;;5032061;28;20022;-74
2023/01/20 10:27:03;;;;;;;10.57;5.22;;;20.20;58.70;;;;;;5033075;28;20549;-74
2023/01/20 10:29:57;;;;;;;13.93;5.50;;;20.20;58.60;;;;;;5033054;28;20071;-74
2023/01/20 10:32:39;;;;;;;12.65;5.63;;;20.20;58.60;;;;;;5032149;28;20045;-74
2023/01/20 10:35:19;;;;;;;12.82;5.38;;;20.20;58.50;;;;;;5033298;28;20021;-74
2023/01/20 10:37:44;;;;;;;13.60;6.13;;;20.30;58.30;;;;;;5048774;28;20037;-74
2023/01/20 10:40:17;;;;;;;12.15;5.07;;;20.30;58.20;;;;;;5015105;28;20041;-74
2023/01/20 10:42:49;;;;;;;12.68;5.13;;;20.30;58.10;;;;;;5032857;28;20033;-74
2023/01/20 10:45:27;;;;;;;9.18;4.88;;;20.20;58.30;;;;;;5032623;28;20039;-74
2023/01/20 10:48:29;;;;;;;10.40;5.25;;;20.30;58.30;;;;;;5031711;28;20474;-74
2023/01/20 10:51:09;;;;;;;10.82;5.07;;;20.20;58.20;;;;;;5016029;28;20133;-74
2023/01/20 10:53:44;;;;;;;;;;;20.20;58.20;;;;;;5033303;28;20036;-74
2023/01/20 10:56:22;;;;;;;9.70;4.68;;;20.20;58.20;;;;;;5032498;28;19913;-74
2023/01/20 10:58:48;;;;;;;11.85;5.30;;;20.20;58.20;;;;;;5031710;28;20041;-74
2023/01/20 11:01:18;;;;;;;10.82;5.38;;;20.20;58.20;;;;;;5033009;28;20485;-74
2023/01/20 11:03:45;;;;;;;;;;;20.20;58.30;;;;;;5031871;28;20438;-74
2023/01/20 11:06:19;;;;;;;11.32;5.00;;;20.20;58.20;;;;;;5032438;28;19982;-74
2023/01/20 11:08:46;;;;;;;12.40;5.10;;;20.20;58.20;;;;;;5012031;28;20039;-74
2023/01/20 11:11:16;;;;;;;12.00;5.78;;;20.20;58.10;;;;;;5032479;28;20021;-74
2023/01/20 11:13:42;;;;;;;15.88;5.50;;;20.20;57.90;;;;;;5021758;28;20524;-73
2023/01/20 11:16:27;;;;;;;15.93;5.75;;;20.20;58.30;;;;;;5028380;28;20026;-76
2023/01/20 11:18:59;;;;;;;14.82;5.88;;;20.30;58.70;;;;;;5030614;28;20025;-74
2023/01/20 11:21:27;;;;;;;13.85;6.30;;;20.40;60.00;;;;;;5029438;28;20041;-74
2023/01/20 11:23:55;;;;;;;15.80;6.13;;;20.40;59.80;;;;;;5032122;28;20025;-73
2023/01/20 11:26:37;;;;;;;13.23;6.72;;;20.40;59.30;;;;;;5014817;28;20109;-74
2023/01/20 11:29:27;;;;;;;13.90;5.97;;;20.30;59.30;;;;;;5011102;28;20018;-73
2023/01/20 11:31:55;;;;;;;13.35;7.10;;;20.40;59.20;;;;;;5012368;28;20042;-73
2023/01/20 11:34:24;;;;;;;16.08;7.45;;;20.40;59.60;;;;;;5027018;28;20030;-74
2023/01/20 11:37:10;;;;;;;13.68;6.82;;;20.40;59.90;;;;;;5011031;28;20037;-74
2023/01/20 11:39:42;;;;;;;15.43;6.72;;;20.40;59.90;;;;;;5046980;28;20385;-74
2023/01/20 11:42:22;;;;;;;15.20;7.25;;;20.40;59.60;;;;;;5031830;28;20393;-73
2023/01/20 11:44:56;;;;;;;16.20;7.47;;;20.40;59.50;;;;;;5030740;28;20033;-73
2023/01/20 11:47:31;;;;;;;13.57;7.15;;;20.40;59.30;;;;;;5014245;28;20022;-73
2023/01/20 11:50:18;;;;;;;13.52;6.68;;;20.40;59.20;;;;;;5030819;28;20022;-74
2023/01/20 11:52:46;;;;;;;15.00;6.55;;;20.30;59.20;;;;;;5017532;28;20033;-73
2023/01/20 11:55:13;;;;;;;14.32;6.82;;;20.30;59.20;;;;;;5031345;28;20033;-73
2023/01/20 11:57:49;;;;;;;17.02;6.35;;;20.30;59.30;;;;;;5031507;28;20641;-73
2023/01/20 12:00:15;;;;;;;11.20;6.18;;;20.30;59.30;;;;;;5031480;28;20100;-73
2023/01/20 12:02:43;;;;;;;14.48;6.30;;;20.30;59.30;;;;;;5030158;28;20396;-75
2023/01/20 12:05:19;;;;;;;17.25;7.07;;;20.30;59.50;;;;;;5030292;28;20386;-73
2023/01/20 12:07:48;;;;;;;13.48;6.38;;;20.30;59.50;;;;;;5013832;28;20485;-73
2023/01/20 12:10:19;;;;;;;11.40;5.83;;;20.30;59.50;;;;;;5031510;28;20441;-72
2023/01/20 12:12:57;;;;;;;11.63;6.00;;;20.30;59.50;;;;;;5029054;28;20140;-74
2023/01/20 12:15:26;;;;;;;10.80;5.82;;;20.30;59.60;;;;;;5046101;28;20144;-73
2023/01/20 12:18:17;;;;;;;11.50;6.60;;;20.30;59.50;;;;;;5046208;28;20049;-74
2023/01/20 12:21:09;;;;;;;11.90;5.70;;;20.30;59.50;;;;;;5030356;28;20041;-75
2023/01/20 12:23:44;;;;;;;10.07;5.93;;;20.30;59.50;;;;;;5018154;28;20431;-75
2023/01/20 12:26:15;;;;;;;20.58;6.95;;;20.30;59.50;;;;;;5025761;28;20109;-74
2023/01/20 12:28:53;;;;;;;12.77;6.47;;;20.30;59.60;;;;;;5031172;28;20064;-75
2023/01/20 12:31:22;;;;;;;11.60;5.88;;;20.30;59.50;;;;;;5031035;28;20037;-75
2023/01/20 12:33:52;;;;;;;12.00;6.28;;;20.30;59.50;;;;;;5030032;28;20091;-76
2023/01/20 12:36:38;;;;;;;11.60;6.50;;;20.40;59.50;;;;;;5046053;28;20033;-76
2023/01/20 12:39:38;;;;;;;11.25;6.10;;;20.30;59.30;;;;;;5030154;28;20044;-75
2023/01/20 12:42:25;;;;;;;12.73;6.50;;;20.30;59.30;;;;;;5018729;28;20116;-73
2023/01/20 12:45:12;;;;;;;12.45;5.70;;;20.40;59.40;;;;;;5045295;28;20032;-72
2023/01/20 12:48:08;;;;;;;14.13;5.85;;;20.30;59.40;;;;;;5030639;28;20067;-73
2023/01/20 12:50:58;;;;;;;12.13;5.82;;;20.30;59.30;;;;;;5030592;28;20110;-74
2023/01/20 12:53:37;;;;;;;11.90;5.75;;;20.30;59.40;;;;;;5030717;28;20052;-73
2023/01/20 12:56:09;;;;;;;15.32;6.10;;;20.30;59.40;;;;;;5029862;28;20033;-76
2023/01/20 12:58:35;;;;;;;9.65;5.78;;;20.30;59.60;;;;;;5028406;28;20075;-74
2023/01/20 13:01:15;;;;;;;14.43;6.32;;;20.30;59.30;;;;;;5014514;28;20030;-74
2023/01/20 13:04:18;;;;;;;14.30;6.88;;;20.30;59.30;;;;;;5031364;28;20508;-75
2023/01/20 13:07:09;;;;;;;14.45;7.25;;;20.30;59.10;;;;;;5014162;28;20397;-75
2023/01/20 13:09:47;;;;;;;16.75;8.40;;;20.30;59.00;;;;;;5045627;28;20044;-74
2023/01/20 13:12:32;;;;;;;14.55;7.15;;;20.30;59.10;;;;;;5031156;28;20035;-75